Time;durP1;ratioP1;P1;durP2;ratioP2;P2;SDS_P1;SDS_P2;PMS_P1;PMS_P2;Temp;Humidity;BMP_temperature;BMP_pressure;BME280_temperature;BME280_humidity;BME280_pressure;Samples;Min_cycle;Max_cycle;Signal;HPM_P1;HPM_P2
2022/09/30 00:01:15;;;;;;;10.68;8.13;;;;;;;7.37;100.00;100617.91;5026206;28;20025;-76
2022/09/30 00:03:42;;;;;;;9.80;8.32;;;;;;;7.35;100.00;100611.06;5031951;28;20150;-73
2022/09/30 00:06:10;;;;;;;10.63;8.18;;;;;;;7.30;100.00;100618.94;5031238;28;20063;-74
2022/09/30 00:08:37;;;;;;;9.55;7.57;;;;;;;7.29;100.00;100623.47;5032546;28;20485;-73
2022/09/30 00:11:04;;;;;;;10.50;7.68;;;;;;;7.24;100.00;100621.41;5032553;28;20045;-75
2022/09/30 00:13:37;;;;;;;10.05;7.72;;;;;;;7.22;100.00;100630.75;5032274;28;20021;-77
2022/09/30 00:16:03;;;;;;;9.32;6.97;;;;;;;7.18;100.00;100624.94;5032432;28;20461;-74
2022/09/30 00:18:32;;;;;;;9.85;7.07;;;;;;;7.17;100.00;100633.22;5030572;28;20514;-74
2022/09/30 00:20:58;;;;;;;10.00;6.85;;;;;;;7.12;100.00;100627.66;5032150;28;20045;-74
2022/09/30 00:23:24;;;;;;;10.32;7.35;;;;;;;7.15;100.00;100630.75;5027385;28;20068;-74
2022/09/30 00:25:50;;;;;;;10.82;7.22;;;;;;;7.14;100.00;100630.94;5030949;28;20018;-78
2022/09/30 00:28:16;;;;;;;8.32;6.70;;;;;;;7.17;100.00;100622.47;5031161;28;20053;-75
2022/09/30 00:30:42;;;;;;;9.27;7.45;;;;;;;7.12;100.00;100625.78;5032409;28;20049;-74
2022/09/30 00:33:08;;;;;;;8.18;6.53;;;;;;;7.08;100.00;100627.22;5032140;28;20388;-74
2022/09/30 00:35:35;;;;;;;10.57;6.53;;;;;;;7.10;100.00;100627.84;5024628;28;20028;-77
2022/09/30 00:38:00;;;;;;;7.95;6.40;;;;;;;7.04;100.00;100626.81;5011480;28;20029;-75
2022/09/30 00:40:26;;;;;;;7.35;6.13;;;;;;;7.01;100.00;100626.41;5012342;28;20104;-73
2022/09/30 00:42:55;;;;;;;12.23;6.72;;;;;;;7.03;100.00;100624.34;5027570;28;20102;-73
2022/09/30 00:45:21;;;;;;;9.65;6.70;;;;;;;7.03;100.00;100619.78;5027637;28;20057;-73
2022/09/30 00:48:00;;;;;;;9.43;6.63;;;;;;;7.05;100.00;100627.63;5012435;28;20060;-73
2022/09/30 00:50:25;;;;;;;9.23;6.68;;;;;;;6.97;100.00;100620.59;5016091;28;20045;-77
2022/09/30 00:52:58;;;;;;;8.95;6.80;;;;;;;6.96;100.00;100627.03;5016638;28;20465;-75
2022/09/30 00:55:38;;;;;;;8.02;7.05;;;;;;;6.92;100.00;100623.09;5016069;28;20026;-76
2022/09/30 00:58:06;;;;;;;9.63;6.80;;;;;;;6.98;100.00;100629.53;5015312;28;20365;-73
2022/09/30 01:00:32;;;;;;;8.38;6.93;;;;;;;6.96;100.00;100632.41;5012633;28;20071;-75
2022/09/30 01:02:57;;;;;;;8.65;7.38;;;;;;;6.96;100.00;100628.88;5016297;28;20030;-76
2022/09/30 01:05:25;;;;;;;8.45;6.85;;;;;;;6.96;100.00;100631.56;5025971;28;20021;-74
2022/09/30 01:07:55;;;;;;;7.53;6.72;;;;;;;6.96;100.00;100631.56;5016288;28;20025;-76
2022/09/30 01:10:20;;;;;;;10.23;7.32;;;;;;;6.92;100.00;100626.59;5016185;28;20029;-76
2022/09/30 01:12:46;;;;;;;10.05;6.90;;;;;;;6.90;100.00;100628.69;5016176;28;20458;-73
2022/09/30 01:15:12;;;;;;;12.15;7.90;;;;;;;6.87;100.00;100623.72;5031308;28;20018;-75
2022/09/30 01:18:04;;;;;;;9.20;7.00;;;;;;;6.83;100.00;100627.03;5014925;28;20083;-72
2022/09/30 01:20:48;;;;;;;;;;;;;;;6.95;100.00;100622.69;5027587;28;20459;-73
2022/09/30 01:23:45;;;;;;;10.35;7.38;;;;;;;6.78;100.00;100624.09;5034087;28;20268;-74
2022/09/30 01:26:19;;;;;;;11.13;7.38;;;;;;;6.72;100.00;100626.59;5034911;28;20476;-78
2022/09/30 01:29:16;;;;;;;9.15;7.90;;;;;;;6.80;100.00;100627.44;5021733;28;20037;-75
2022/09/30 01:31:53;;;;;;;9.88;7.20;;;;;;;6.74;100.00;100624.53;5021105;28;20481;-74
2022/09/30 01:34:42;;;;;;;8.80;7.53;;;;;;;6.73;100.00;100632.78;5029894;28;20034;-73
2022/09/30 01:37:28;;;;;;;9.73;7.70;;;;;;;6.77;100.00;100627.84;5014580;28;20022;-73
2022/09/30 01:40:21;;;;;;;9.57;7.78;;;;;;;6.71;100.00;100630.31;5014416;28;20028;-74
2022/09/30 01:42:53;;;;;;;10.50;8.45;;;;;;;6.66;100.00;100629.28;5014436;28;20076;-76
2022/09/30 01:46:09;;;;;;;11.93;8.70;;;;;;;6.73;100.00;100630.09;5015133;28;20060;-73
2022/09/30 01:48:40;;;;;;;10.02;8.25;;;;;;;6.60;100.00;100635.44;5013760;28;20026;-77
2022/09/30 01:51:31;;;;;;;8.77;7.90;;;;;;;6.62;100.00;100628.84;5030110;28;20519;-76
2022/09/30 01:54:06;;;;;;;10.48;7.88;;;;;;;6.55;100.00;100630.69;5019720;28;20037;-72
2022/09/30 01:56:42;;;;;;;9.95;7.93;;;;;;;6.51;100.00;100624.91;5013884;28;20010;-75
2022/09/30 01:59:19;;;;;;;9.82;8.20;;;;;;;6.51;100.00;100622.22;5013861;28;20037;-76
2022/09/30 02:02:16;;;;;;;9.50;8.23;;;;;;;6.55;100.00;100634.22;5012064;28;20107;-73
2022/09/30 02:04:48;;;;;;;13.50;8.85;;;;;;;6.51;100.00;100630.28;5012062;28;20045;-76
2022/09/30 02:07:27;;;;;;;10.50;8.80;;;;;;;6.50;100.00;100635.88;5026503;28;20106;-75
2022/09/30 02:10:08;;;;;;;10.43;8.48;;;;;;;6.46;100.00;100634.59;5030448;28;20126;-75
2022/09/30 02:12:40;;;;;;;10.57;8.45;;;;;;;6.36;100.00;100626.94;5019977;28;20021;-74
2022/09/30 02:15:08;;;;;;;;;;;;;;;6.55;100.00;100638.75;5035037;28;20029;-75
2022/09/30 02:17:39;;;;;;;15.25;9.38;;;;;;;6.33;100.00;100643.47;5034610;28;19909;-73
2022/09/30 02:20:13;;;;;;;11.13;10.02;;;;;;;6.37;100.00;100644.69;5033671;28;20483;-73
2022/09/30 02:22:48;;;;;;;10.95;9.80;;;;;;;6.41;100.00;100640.59;5032762;28;20046;-73
2022/09/30 02:25:30;;;;;;;14.27;9.13;;;;;;;6.40;100.00;100644.28;5049806;28;20083;-73
2022/09/30 02:28:04;;;;;;;11.30;9.43;;;;;;;6.39;100.00;100634.59;5034384;28;20051;-73
2022/09/30 02:30:32;;;;;;;12.63;9.32;;;;;;;6.38;100.00;100649.06;5033167;28;20357;-76
2022/09/30 02:33:05;;;;;;;11.05;9.65;;;;;;;6.40;100.00;100649.66;5034563;28;20352;-75
2022/09/30 02:35:37;;;;;;;11.45;10.25;;;;;;;6.35;100.00;100649.47;5024271;28;20026;-74
2022/09/30 02:38:07;;;;;;;;;;;;;;;6.47;100.00;100645.16;5026324;28;20032;-74
2022/09/30 02:40:38;;;;;;;12.07;9.60;;;;;;;6.31;100.00;100635.63;5014046;28;19906;-75
2022/09/30 02:43:04;;;;;;;10.60;8.95;;;;;;;6.29;100.00;100636.84;5014347;28;20080;-76
2022/09/30 02:45:39;;;;;;;12.90;10.07;;;;;;;6.23;100.00;100632.28;5014023;28;20022;-75
2022/09/30 02:48:35;;;;;;;11.27;9.45;;;;;;;6.26;100.00;100638.06;5014241;28;20021;-73
2022/09/30 02:51:54;;;;;;;11.50;9.73;;;;;;;6.28;100.00;100640.53;5026894;28;20017;-75
2022/09/30 02:54:33;;;;;;;12.40;10.30;;;;;;;6.19;100.00;100638.06;5011697;28;20032;-73
2022/09/30 02:57:27;;;;;;;13.02;10.65;;;;;;;6.20;100.00;100639.72;5033142;28;20033;-75
2022/09/30 02:59:53;;;;;;;14.70;10.85;;;;;;;6.16;100.00;100630.38;5029449;28;20026;-74
2022/09/30 03:02:19;;;;;;;11.65;10.45;;;;;;;6.20;100.00;100638.88;5011318;28;20018;-77
2022/09/30 03:04:46;;;;;;;11.75;10.43;;;;;;;6.19;100.00;100637.22;5018395;28;20025;-76
2022/09/30 03:07:11;;;;;;;13.15;10.73;;;;;;;6.13;100.00;100636.16;5032638;28;20453;-74
2022/09/30 03:09:37;;;;;;;12.00;9.75;;;;;;;6.15;100.00;100636.78;5033395;28;20060;-76
2022/09/30 03:12:21;;;;;;;10.90;9.88;;;;;;;6.13;100.00;100638.84;5032791;28;20017;-74
2022/09/30 03:15:04;;;;;;;13.02;10.88;;;;;;;6.11;100.00;100643.59;5033825;28;20028;-77
2022/09/30 03:17:56;;;;;;;18.05;12.50;;;;;;;6.13;100.00;100646.91;5033181;28;20516;-74
2022/09/30 03:20:50;;;;;;;15.90;12.20;;;;;;;6.19;100.00;100643.41;5024249;28;20411;-75
2022/09/30 03:23:35;;;;;;;14.80;12.35;;;;;;;6.21;100.00;100646.72;5033446;28;20024;-75
2022/09/30 03:26:07;;;;;;;13.10;11.80;;;;;;;6.15;100.00;100647.53;5033313;28;20057;-75
2022/09/30 03:28:53;;;;;;;16.92;12.48;;;;;;;6.11;100.00;100646.28;5032991;28;20017;-75
2022/09/30 03:31:40;;;;;;;12.90;11.52;;;;;;;6.12;100.00;100644.44;5031997;28;20080;-75
2022/09/30 03:34:20;;;;;;;13.65;11.60;;;;;;;6.10;100.00;100650.00;5028957;28;20024;-75
2022/09/30 03:37:10;;;;;;;12.75;11.18;;;;;;;6.09;100.00;100648.34;5012100;28;20084;-72
2022/09/30 03:39:50;;;;;;;13.23;11.07;;;;;;;6.05;100.00;100652.44;5013398;28;20025;-74
2022/09/30 03:42:25;;;;;;;15.27;12.20;;;;;;;6.05;100.00;100651.63;5014114;28;20022;-73
2022/09/30 03:45:05;;;;;;;12.82;11.40;;;;;;;6.00;100.00;100650.34;5032960;28;20076;-74
2022/09/30 03:47:36;;;;;;;13.63;12.10;;;;;;;6.01;100.00;100657.41;5032613;28;20026;-72
2022/09/30 03:50:07;;;;;;;14.55;11.95;;;;;;;5.96;100.00;100654.47;5047534;28;20112;-73
2022/09/30 03:52:33;;;;;;;13.70;12.40;;;;;;;5.97;100.00;100656.13;5031612;28;20022;-72
2022/09/30 03:55:10;;;;;;;15.32;11.95;;;;;;;5.98;100.00;100662.34;5032735;28;20423;-74
2022/09/30 03:57:36;;;;;;;15.60;12.73;;;;;;;5.93;100.00;100672.81;5031243;28;20021;-76
2022/09/30 04:00:02;;;;;;;14.18;12.23;;;;;;;5.89;100.00;100671.53;5031627;28;20022;-75
2022/09/30 04:02:28;;;;;;;14.40;12.90;;;;;;;5.91;100.00;100675.69;5030126;28;20105;-76
2022/09/30 04:04:54;;;;;;;14.85;12.50;;;;;;;5.94;100.00;100679.84;5021502;28;20443;-74
2022/09/30 04:07:19;;;;;;;15.45;13.23;;;;;;;5.96;100.00;100680.47;5011552;28;20033;-76
2022/09/30 04:09:45;;;;;;;15.00;12.25;;;;;;;5.95;100.00;100676.13;5027901;28;20022;-77
2022/09/30 04:12:10;;;;;;;15.60;12.88;;;;;;;5.89;100.00;100688.50;5012802;28;20041;-75
2022/09/30 04:14:36;;;;;;;16.45;13.73;;;;;;;5.80;100.00;100693.19;5011538;28;20056;-74
2022/09/30 04:17:03;;;;;;;14.77;13.23;;;;;;;5.81;100.00;100704.75;5011465;28;20053;-76
2022/09/30 04:19:29;;;;;;;14.73;13.23;;;;;;;5.84;100.00;100701.69;5024937;28;20456;-75
2022/09/30 04:21:54;;;;;;;16.67;13.15;;;;;;;5.85;100.00;100708.72;5032423;28;20071;-74
2022/09/30 04:24:21;;;;;;;17.10;12.98;;;;;;;5.86;100.00;100710.38;5031087;28;20400;-76
2022/09/30 04:26:46;;;;;;;15.02;13.23;;;;;;;5.85;100.00;100725.66;5032484;28;20100;-72
2022/09/30 04:29:11;;;;;;;14.85;12.82;;;;;;;5.84;100.00;100725.84;5030617;28;20112;-76
2022/09/30 04:31:37;;;;;;;14.73;13.23;;;;;;;5.81;100.00;100726.25;5031166;28;20013;-77
2022/09/30 04:34:02;;;;;;;14.63;12.95;;;;;;;5.82;100.00;100720.69;5020679;28;20357;-75
2022/09/30 04:36:27;;;;;;;15.45;12.95;;;;;;;5.83;100.00;100726.91;5027573;28;20072;-77
2022/09/30 04:38:53;;;;;;;15.25;13.20;;;;;;;5.82;100.00;100722.53;5012477;28;20477;-76
2022/09/30 04:41:18;;;;;;;14.68;13.05;;;;;;;5.80;100.00;100721.91;5012818;28;20364;-74
2022/09/30 04:43:45;;;;;;;17.20;13.57;;;;;;;5.76;100.00;100721.47;5012533;28;20369;-77
2022/09/30 04:46:11;;;;;;;14.55;12.25;;;;;;;5.72;100.00;100725.56;5027801;28;20441;-74
2022/09/30 04:48:37;;;;;;;16.65;13.05;;;;;;;5.61;100.00;100726.13;5021789;28;20021;-76
2022/09/30 04:51:02;;;;;;;15.27;13.07;;;;;;;5.68;100.00;100730.50;5029949;28;20025;-76
2022/09/30 04:53:28;;;;;;;14.50;12.68;;;;;;;5.70;100.00;100726.81;5030517;28;20060;-75
2022/09/30 04:56:00;;;;;;;14.60;13.00;;;;;;;5.68;100.00;100738.56;5032089;28;20017;-77
2022/09/30 04:58:26;;;;;;;15.25;13.65;;;;;;;5.62;100.00;100736.66;5030847;28;20124;-75
2022/09/30 05:00:59;;;;;;;16.55;13.82;;;;;;;5.62;100.00;100743.88;5026267;28;20026;-78
2022/09/30 05:03:24;;;;;;;16.73;13.82;;;;;;;5.64;100.00;100741.84;5024917;28;20021;-73
2022/09/30 05:05:50;;;;;;;18.10;13.48;;;;;;;5.65;100.00;100740.81;5031932;28;20476;-76
2022/09/30 05:08:15;;;;;;;15.25;13.70;;;;;;;5.67;100.00;100746.81;5032034;28;20083;-77
2022/09/30 05:10:41;;;;;;;19.05;13.93;;;;;;;5.60;100.00;100746.78;5031696;28;20465;-74
2022/09/30 05:13:06;;;;;;;14.60;13.10;;;;;;;5.55;100.00;100751.06;5030913;28;20110;-75
2022/09/30 05:15:33;;;;;;;14.98;12.60;;;;;;;5.56;100.00;100747.34;5031711;28;20017;-76
2022/09/30 05:17:59;;;;;;;17.08;14.35;;;;;;;5.54;100.00;100757.44;5033415;28;20029;-73
2022/09/30 05:20:24;;;;;;;16.13;13.52;;;;;;;5.54;100.00;100752.91;5011378;28;20022;-77
2022/09/30 05:22:55;;;;;;;15.32;13.70;;;;;;;5.54;100.00;100754.75;5027683;28;20353;-77
2022/09/30 05:25:22;;;;;;;17.25;14.35;;;;;;;5.49;100.00;100756.16;5027175;28;20029;-78
2022/09/30 05:27:49;;;;;;;16.00;13.25;;;;;;;5.58;100.00;100759.53;5027414;28;20025;-73
2022/09/30 05:30:14;;;;;;;20.23;13.50;;;;;;;5.57;100.00;100755.22;5010815;28;20075;-75
2022/09/30 05:32:39;;;;;;;14.38;12.60;;;;;;;5.53;100.00;100751.25;5010728;28;20022;-74
2022/09/30 05:35:05;;;;;;;18.10;13.55;;;;;;;5.53;100.00;100755.78;5011531;28;20409;-76
2022/09/30 05:37:32;;;;;;;16.75;14.25;;;;;;;5.55;100.00;100767.16;5034093;28;20477;-74
2022/09/30 05:39:58;;;;;;;14.93;13.02;;;;;;;5.47;100.00;100765.44;5034329;28;20179;-75
2022/09/30 05:42:23;;;;;;;15.10;13.30;;;;;;;5.48;100.00;100776.00;5034307;28;20018;-77
2022/09/30 05:44:48;;;;;;;16.48;13.90;;;;;;;5.47;100.00;100782.38;5029915;28;20412;-74
2022/09/30 05:47:14;;;;;;;16.63;13.88;;;;;;;5.50;100.00;100779.31;5015590;28;20029;-75
2022/09/30 05:49:40;;;;;;;18.55;15.10;;;;;;;5.52;100.00;100791.72;5029547;28;20072;-73
2022/09/30 05:52:06;;;;;;;17.20;14.15;;;;;;;5.49;100.00;100798.28;5016989;28;20179;-73
2022/09/30 05:54:31;;;;;;;16.70;14.30;;;;;;;5.52;100.00;100797.06;5015397;28;20104;-73
2022/09/30 05:56:57;;;;;;;19.30;14.82;;;;;;;5.56;100.00;100795.66;5047291;28;20052;-75
2022/09/30 05:59:22;;;;;;;17.30;13.68;;;;;;;5.56;100.00;100793.81;5015538;28;20472;-75
2022/09/30 06:01:48;;;;;;;15.80;13.40;;;;;;;5.50;100.00;100799.94;5012783;28;20026;-76
2022/09/30 06:04:13;;;;;;;16.23;13.85;;;;;;;5.54;100.00;100806.59;5014299;28;20091;-74
2022/09/30 06:06:38;;;;;;;16.25;13.77;;;;;;;5.54;100.00;100805.75;5015115;28;20021;-71
2022/09/30 06:09:04;;;;;;;16.08;13.88;;;;;;;5.59;100.00;100811.38;5015435;28;20033;-75
2022/09/30 06:11:30;;;;;;;18.00;13.73;;;;;;;5.67;100.00;100813.94;5015286;28;20036;-72
2022/09/30 06:13:56;;;;;;;16.08;13.77;;;;;;;5.63;100.00;100812.66;5015209;28;20353;-75
2022/09/30 06:16:22;;;;;;;15.80;13.63;;;;;;;5.70;100.00;100812.72;5015111;28;20022;-76
2022/09/30 06:18:48;;;;;;;17.08;13.35;;;;;;;5.75;100.00;100823.69;5014350;28;20469;-73
2022/09/30 06:21:15;;;;;;;17.52;14.60;;;;;;;5.78;100.00;100824.16;5014578;28;20050;-74
2022/09/30 06:23:42;;;;;;;16.85;14.13;;;;;;;5.81;100.00;100821.09;5045039;28;20461;-76
2022/09/30 06:26:10;;;;;;;16.55;14.77;;;;;;;5.85;100.00;100824.19;5033439;28;20155;-73
2022/09/30 06:28:35;;;;;;;16.58;13.73;;;;;;;5.87;100.00;100830.19;5034381;28;20451;-72
2022/09/30 06:31:02;;;;;;;18.23;15.20;;;;;;;5.86;100.00;100831.25;5034617;28;20036;-74
2022/09/30 06:33:28;;;;;;;16.55;13.90;;;;;;;5.93;100.00;100842.03;5032914;28;20032;-74
2022/09/30 06:35:53;;;;;;;16.83;13.70;;;;;;;5.94;100.00;100832.94;5032693;28;20009;-77
2022/09/30 06:38:20;;;;;;;18.13;14.38;;;;;;;5.98;100.00;100828.88;5017750;28;20026;-77
2022/09/30 06:40:49;;;;;;;17.55;14.88;;;;;;;6.05;100.00;100826.25;5014261;28;20104;-77
2022/09/30 06:43:15;;;;;;;16.95;15.15;;;;;;;6.09;100.00;100822.97;5014200;28;20373;-76
2022/09/30 06:45:40;;;;;;;16.48;14.77;;;;;;;6.19;100.00;100818.06;5014137;28;20061;-73
2022/09/30 06:48:07;;;;;;;17.80;15.38;;;;;;;6.20;100.00;100814.38;5014438;28;20119;-74
2022/09/30 06:50:33;;;;;;;17.73;15.82;;;;;;;6.26;100.00;100812.72;5014223;28;20030;-75
2022/09/30 06:53:00;;;;;;;20.77;16.88;;;;;;;6.29;100.00;100820.41;5039059;28;20029;-73
2022/09/30 06:55:27;;;;;;;17.83;15.82;;;;;;;6.31;100.00;100820.19;5018804;28;20084;-77
2022/09/30 06:57:54;;;;;;;21.58;17.52;;;;;;;6.39;100.00;100817.38;5013943;28;20033;-77
2022/09/30 07:00:19;;;;;;;23.58;17.92;;;;;;;6.43;100.00;100815.94;5014001;28;20025;-76
2022/09/30 07:02:44;;;;;;;23.15;17.98;;;;;;;6.49;100.00;100825.06;5011609;28;20075;-75
2022/09/30 07:05:10;;;;;;;20.42;17.45;;;;;;;6.56;100.00;100821.38;5020241;28;20096;-75
2022/09/30 07:07:35;;;;;;;25.52;19.25;;;;;;;6.64;100.00;100819.56;5013855;28;20108;-78
2022/09/30 07:10:03;;;;;;;24.60;20.15;;;;;;;6.68;100.00;100831.56;5014087;28;20021;-76
2022/09/30 07:12:29;;;;;;;27.75;21.50;;;;;;;6.76;100.00;100831.41;5017421;28;20029;-76
2022/09/30 07:14:58;;;;;;;26.00;21.05;;;;;;;6.81;100.00;100828.09;5032461;28;20094;-78
2022/09/30 07:17:27;;;;;;;25.58;21.27;;;;;;;6.86;100.00;100826.47;5036470;28;20072;-76
2022/09/30 07:19:52;;;;;;;26.60;20.75;;;;;;;6.94;100.00;100819.28;5032319;28;20067;-80
2022/09/30 07:22:33;;;;;;;25.45;20.77;;;;;;;7.02;100.00;100817.22;5018466;28;20041;-82
2022/09/30 07:25:01;;;;;;;27.90;21.23;;;;;;;7.10;100.00;100821.59;5013651;28;20026;-76
2022/09/30 07:27:27;;;;;;;26.35;21.45;;;;;;;7.15;100.00;100818.28;5028924;28;20053;-74
2022/09/30 07:29:53;;;;;;;25.38;22.08;;;;;;;7.26;100.00;100818.53;5022320;28;20442;-74
2022/09/30 07:32:22;;;;;;;25.10;20.75;;;;;;;7.36;100.00;100833.47;5043053;28;20109;-77
2022/09/30 07:34:48;;;;;;;29.50;21.73;;;;;;;7.44;100.00;100841.34;5012822;28;20033;-75
2022/09/30 07:37:16;;;;;;;26.58;21.92;;;;;;;7.53;100.00;100842.78;5013384;28;20026;-75
2022/09/30 07:39:43;;;;;;;26.20;21.95;;;;;;;7.57;100.00;100833.28;5012361;28;20350;-76
2022/09/30 07:42:09;;;;;;;32.85;21.92;;;;;;;7.68;100.00;100836.41;5011974;28;20025;-74
2022/09/30 07:44:35;;;;;;;25.15;20.17;;;;;;;7.69;100.00;100840.75;5027149;28;20519;-77
2022/09/30 07:47:01;;;;;;;26.10;20.92;;;;;;;7.71;100.00;100847.56;5032398;28;20025;-77
2022/09/30 07:49:26;;;;;;;24.67;19.88;;;;;;;7.74;100.00;100844.47;5014060;28;20034;-77
2022/09/30 07:51:55;;;;;;;23.55;20.30;;;;;;;7.78;100.00;100834.13;5012824;28;20369;-81
2022/09/30 07:54:24;;;;;;;25.40;21.13;;;;;;;7.80;100.00;100822.13;5013527;28;20076;-78
2022/09/30 07:56:51;;;;;;;23.42;20.63;;;;;;;7.83;100.00;100831.63;5013144;28;20025;-77
2022/09/30 07:59:17;;;;;;;22.95;19.52;;;;;;;7.85;100.00;100826.03;5012498;28;20040;-77
2022/09/30 08:01:43;;;;;;;26.60;20.73;;;;;;;7.89;100.00;100833.50;5011081;28;20420;-77
2022/09/30 08:04:10;;;;;;;25.23;20.58;;;;;;;7.93;100.00;100837.44;5011940;28;20393;-78
2022/09/30 08:06:39;;;;;;;23.13;19.70;;;;;;;7.98;100.00;100834.94;5012959;28;20381;-77
2022/09/30 08:09:05;;;;;;;22.42;19.77;;;;;;;8.06;100.00;100828.53;5012776;28;20034;-78
2022/09/30 08:11:35;;;;;;;22.15;19.73;;;;;;;8.15;100.00;100829.13;5012831;28;20028;-77
2022/09/30 08:14:00;;;;;;;24.08;20.55;;;;;;;8.21;100.00;100833.66;5012460;28;20040;-77
2022/09/30 08:16:26;;;;;;;25.17;21.70;;;;;;;8.23;100.00;100825.38;5012949;28;20022;-77
2022/09/30 08:19:00;;;;;;;27.48;22.35;;;;;;;8.29;100.00;100836.16;5012854;28;20037;-76
2022/09/30 08:21:26;;;;;;;28.42;22.85;;;;;;;8.35;100.00;100834.50;5016185;28;20076;-75
2022/09/30 08:23:52;;;;;;;26.35;23.33;;;;;;;8.41;100.00;100839.06;5041863;28;20029;-75
2022/09/30 08:26:17;;;;;;;28.75;24.30;;;;;;;8.46;100.00;100843.84;5014636;28;20037;-77
2022/09/30 08:28:46;;;;;;;27.50;24.33;;;;;;;8.52;100.00;100837.59;5012787;28;20115;-73
2022/09/30 08:31:14;;;;;;;29.27;24.05;;;;;;;8.60;100.00;100836.53;5012924;28;20030;-73
2022/09/30 08:33:40;;;;;;;28.52;23.88;;;;;;;8.66;100.00;100841.06;5013292;28;20063;-71
2022/09/30 08:36:11;;;;;;;29.55;24.02;;;;;;;8.70;100.00;100836.91;5024869;28;20037;-71
2022/09/30 08:38:37;;;;;;;28.60;23.67;;;;;;;8.80;100.00;100833.75;5032570;28;20029;-70
2022/09/30 08:41:29;;;;;;;26.58;23.23;;;;;;;8.86;100.00;100824.81;5032137;28;20350;-72
2022/09/30 08:44:12;;;;;;;25.52;22.02;;;;;;;8.99;100.00;100835.53;5025591;28;20026;-72
2022/09/30 08:46:48;;;;;;;25.08;22.38;;;;;;;9.09;100.00;100834.25;5012606;28;20026;-74
2022/09/30 08:49:31;;;;;;;25.73;21.50;;;;;;;9.17;100.00;100834.03;5012768;28;20026;-70
2022/09/30 08:52:00;;;;;;;23.75;21.05;;;;;;;9.28;100.00;100836.00;5012267;28;20026;-69
2022/09/30 08:54:30;;;;;;;25.42;22.17;;;;;;;9.39;100.00;100846.16;5012621;28;20049;-71
2022/09/30 08:56:56;;;;;;;24.58;21.77;;;;;;;9.50;100.00;100843.81;5031775;28;20029;-71
2022/09/30 08:59:36;;;;;;;25.10;22.40;;;;;;;9.58;100.00;100847.03;5032076;28;20022;-71
2022/09/30 09:02:23;;;;;;;23.55;20.17;;;;;;;9.69;100.00;100842.84;5024860;28;20100;-69
2022/09/30 09:04:53;;;;;;;21.45;18.33;;;;;;;9.82;100.00;100851.88;5037687;28;20056;-70
2022/09/30 09:07:35;;;;;;;22.75;18.92;;;;;;;9.91;100.00;100842.44;5031800;28;20089;-70
2022/09/30 09:10:16;;;;;;;23.33;18.73;;;;;;;9.99;100.00;100827.81;5032995;28;20487;-69
2022/09/30 09:13:03;;;;;;;21.35;18.90;;;;;;;10.08;100.00;100821.94;5022637;28;20026;-72
2022/09/30 09:15:47;;;;;;;19.20;16.77;;;;;;;10.15;100.00;100829.16;5016317;28;20032;-69
2022/09/30 09:18:35;;;;;;;21.83;18.13;;;;;;;10.30;100.00;100837.72;5014543;28;20026;-70
2022/09/30 09:21:21;;;;;;;22.02;19.33;;;;;;;10.38;100.00;100840.16;5034780;28;20057;-70
2022/09/30 09:23:53;;;;;;;22.08;17.58;;;;;;;10.48;100.00;100831.53;5035739;28;20056;-69
2022/09/30 09:26:18;;;;;;;22.95;17.35;;;;;;;10.68;100.00;100841.31;5035185;28;20376;-68
2022/09/30 09:29:10;;;;;;;21.20;16.10;;;;;;;10.72;100.00;100837.94;5035280;28;20025;-69
2022/09/30 09:31:35;;;;;;;19.58;15.13;;;;;;;10.82;100.00;100837.38;5004620;28;20049;-71
2022/09/30 09:34:09;;;;;;;18.83;15.48;;;;;;;10.86;100.00;100843.19;5033589;28;20037;-71
2022/09/30 09:36:52;;;;;;;15.38;13.25;;;;;;;10.97;100.00;100853.25;5014531;28;20052;-71
2022/09/30 09:39:45;;;;;;;19.08;14.25;;;;;;;11.04;100.00;100850.47;5015599;28;20038;-72
2022/09/30 09:42:20;;;;;;;16.65;13.68;;;;;;;11.12;100.00;100845.53;5015494;28;20020;-70
2022/09/30 09:44:52;;;;;;;17.83;13.38;;;;;;;11.26;100.00;100846.22;5031801;28;20037;-70
2022/09/30 09:47:18;;;;;;;;;;;;;;;11.29;100.00;100843.03;5035839;28;20120;-69
2022/09/30 09:49:48;;;;;;;18.13;12.93;;;;;;;11.35;100.00;100833.97;5034930;28;19963;-72
2022/09/30 09:52:13;;;;;;;15.23;13.10;;;;;;;11.41;100.00;100837.63;5035093;28;20044;-71
2022/09/30 09:54:49;;;;;;;13.40;12.00;;;;;;;11.51;100.00;100834.38;5029318;28;20449;-69
2022/09/30 09:57:17;;;;;;;14.95;11.23;;;;;;;11.56;100.00;100836.38;5021769;28;20055;-70
2022/09/30 10:03:07;;;;;;;17.38;11.85;;;;;;;11.70;100.00;100837.84;5014624;28;20474;-69
2022/09/30 10:05:38;;;;;;;15.03;11.43;;;;;;;11.79;100.00;100833.75;5015223;28;20029;-73
2022/09/30 10:08:17;;;;;;;11.80;9.80;;;;;;;11.83;100.00;100837.63;5027949;28;20456;-69
2022/09/30 10:10:54;;;;;;;11.38;9.68;;;;;;;11.90;100.00;100837.53;5034651;28;20104;-71
2022/09/30 10:13:28;;;;;;;10.20;8.75;;;;;;;12.01;100.00;100836.72;5034857;28;20038;-70
2022/09/30 10:15:57;;;;;;;9.98;8.88;;;;;;;12.05;100.00;100837.91;5018649;28;20037;-69
2022/09/30 10:18:28;;;;;;;10.20;9.10;;;;;;;12.14;100.00;100837.53;5027529;28;20506;-69
2022/09/30 10:21:00;;;;;;;10.48;9.38;;;;;;;12.14;100.00;100841.09;5033822;28;20053;-70
2022/09/30 10:23:39;;;;;;;11.52;7.93;;;;;;;12.22;100.00;100846.16;5033529;28;20025;-72
2022/09/30 10:26:13;;;;;;;11.30;7.63;;;;;;;12.33;100.00;100840.97;5034369;28;20033;-73
2022/09/30 10:29:00;;;;;;;8.75;7.85;;;;;;;12.42;100.00;100844.97;5033336;28;20029;-69
2022/09/30 10:31:31;;;;;;;11.13;8.00;;;;;;;12.45;100.00;100843.69;5034475;28;20029;-72
2022/09/30 10:34:24;;;;;;;9.18;7.78;;;;;;;12.53;100.00;100830.59;5021726;28;20022;-70
2022/09/30 10:36:51;;;;;;;8.43;7.13;;;;;;;12.61;100.00;100842.16;5033994;28;20159;-70
2022/09/30 10:39:27;;;;;;;10.98;7.68;;;;;;;12.62;100.00;100844.63;5034094;28;20021;-70
2022/09/30 10:42:20;;;;;;;10.13;7.47;;;;;;;12.61;100.00;100839.44;5034135;28;20496;-69
2022/09/30 10:44:55;;;;;;;10.77;6.68;;;;;;;12.67;100.00;100847.44;5033044;28;20116;-71
2022/09/30 10:47:25;;;;;;;8.23;6.68;;;;;;;12.77;100.00;100838.66;5034200;28;20063;-69
2022/09/30 10:50:04;;;;;;;8.90;6.82;;;;;;;12.85;100.00;100838.31;5034067;28;20032;-70
2022/09/30 10:52:43;;;;;;;6.50;5.60;;;;;;;12.98;100.00;100848.03;5033301;28;20017;-70
2022/09/30 10:55:33;;;;;;;7.43;5.03;;;;;;;13.08;100.00;100842.00;5013740;28;20033;-70
2022/09/30 10:58:18;;;;;;;6.10;5.10;;;;;;;13.17;100.00;100840.56;5014103;28;20080;-70
2022/09/30 11:00:46;;;;;;;4.32;3.92;;;;;;;13.17;100.00;100847.88;4990237;28;20029;-70
2022/09/30 11:03:23;;;;;;;8.45;4.15;;;;;;;13.14;96.38;100838.31;5014175;28;20080;-70
2022/09/30 11:05:49;;;;;;;6.03;4.50;;;;;;;13.12;99.96;100844.00;5013930;28;20104;-70
2022/09/30 11:08:32;;;;;;;4.43;3.45;;;;;;;13.23;100.00;100838.75;5017870;28;20068;-70
2022/09/30 11:11:33;;;;;;;4.80;3.42;;;;;;;13.32;94.34;100836.47;5044176;28;20029;-70
2022/09/30 11:14:25;;;;;;;4.60;3.60;;;;;;;13.43;91.79;100827.47;5031414;28;20037;-72
2022/09/30 11:16:50;;;;;;;3.85;3.47;;;;;;;13.53;88.87;100826.84;5032260;28;20345;-73
2022/09/30 11:19:23;;;;;;;5.35;3.47;;;;;;;13.61;85.81;100835.38;5033729;28;20024;-72
2022/09/30 11:22:27;;;;;;;5.03;3.40;;;;;;;13.72;88.94;100830.94;5032860;28;20144;-72
2022/09/30 11:24:54;;;;;;;8.27;3.65;;;;;;;13.75;82.28;100835.06;5020025;28;20369;-72
2022/09/30 11:27:27;;;;;;;3.95;3.55;;;;;;;13.80;81.64;100827.00;5033403;28;20079;-72
2022/09/30 11:30:27;;;;;;;5.53;3.63;;;;;;;13.91;85.33;100834.25;5031971;28;20032;-72
2022/09/30 11:33:11;;;;;;;3.92;3.58;;;;;;;14.06;84.30;100827.41;5022180;28;20038;-73
2022/09/30 11:35:50;;;;;;;6.03;3.63;;;;;;;14.18;83.79;100815.34;5013407;28;20025;-73
2022/09/30 11:38:43;;;;;;;5.20;3.45;;;;;;;14.31;81.44;100821.50;5012160;28;20030;-72
2022/09/30 11:41:33;;;;;;;4.35;3.72;;;;;;;14.42;81.45;100823.31;5013166;28;20512;-72